AUA86 EDDS-LOWW
Flight info
| Callsign | AUA86 |
|---|---|
| Flight time | 0h 59m |
| Altitude | 31000 |
| Route | ABTAL4H/07 ABTAL L173 RIXED Y161 RIDAR Z98 MIQ L605 BIBAG Q104 AKIMA DCT MASUR MASUR3W |
| Aircraft | A320/M-SDE3FGHIRWY/LB1 |
Departure
| Time | 2026-04-26 19:39 |
|---|---|
| Airport | Stuttgart Airport (EDDS) |
Arrival
| Time | 2026-04-26 20:38 |
|---|---|
| Airport | Vienna International Airport (LOWW) |
| Time | Latitude | Longitude | Altitude | Speed | Heading |
|---|---|---|---|---|---|
| 2026-04-26 19:09 | 48.68884 | 9.19359 | 1316 ft | 0 kts | 344° |
| 2026-04-26 19:24 | 48.68879 | 9.19361 | 1315 ft | 4 kts | 344° |
| 2026-04-26 19:24 | 48.68853 | 9.19372 | 1315 ft | 4 kts | 344° |
| 2026-04-26 19:24 | 48.68815 | 9.19405 | 1313 ft | 4 kts | 275° |
| 2026-04-26 19:25 | 48.68818 | 9.19440 | 1313 ft | 1 kts | 254° |
| 2026-04-26 19:25 | 48.68818 | 9.19441 | 1312 ft | 0 kts | 254° |
| 2026-04-26 19:28 | 48.68814 | 9.19420 | 1313 ft | 3 kts | 253° |
| 2026-04-26 19:28 | 48.68807 | 9.19386 | 1313 ft | 5 kts | 253° |
| 2026-04-26 19:29 | 48.68794 | 9.19315 | 1314 ft | 9 kts | 253° |
| 2026-04-26 19:29 | 48.68776 | 9.19218 | 1316 ft | 8 kts | 255° |
| 2026-04-26 19:29 | 48.68756 | 9.19159 | 1317 ft | 5 kts | 225° |
| 2026-04-26 19:29 | 48.68725 | 9.19145 | 1318 ft | 7 kts | 181° |
| 2026-04-26 19:30 | 48.68669 | 9.19166 | 1316 ft | 9 kts | 162° |
| 2026-04-26 19:30 | 48.68645 | 9.19257 | 1313 ft | 11 kts | 77° |
| 2026-04-26 19:30 | 48.68670 | 9.19386 | 1309 ft | 15 kts | 74° |
| 2026-04-26 19:30 | 48.68690 | 9.19497 | 1306 ft | 18 kts | 74° |
| 2026-04-26 19:31 | 48.68736 | 9.19738 | 1300 ft | 20 kts | 74° |
| 2026-04-26 19:31 | 48.68758 | 9.19853 | 1297 ft | 0 kts | 75° |
| 2026-04-26 19:31 | 48.68761 | 9.19869 | 1296 ft | 3 kts | 75° |
| 2026-04-26 19:31 | 48.68763 | 9.19912 | 1295 ft | 5 kts | 98° |
| 2026-04-26 19:32 | 48.68743 | 9.19955 | 1293 ft | 0 kts | 143° |
| 2026-04-26 19:34 | 48.68730 | 9.19965 | 1292 ft | 4 kts | 155° |
| 2026-04-26 19:35 | 48.68691 | 9.19984 | 1289 ft | 8 kts | 163° |
| 2026-04-26 19:35 | 48.68672 | 9.19992 | 1288 ft | 0 kts | 163° |
| 2026-04-26 19:37 | 48.68668 | 9.19994 | 1288 ft | 2 kts | 163° |
| 2026-04-26 19:37 | 48.68638 | 9.20015 | 1289 ft | 8 kts | 148° |
| 2026-04-26 19:37 | 48.68604 | 9.20088 | 1283 ft | 9 kts | 109° |
| 2026-04-26 19:38 | 48.68606 | 9.20191 | 1282 ft | 11 kts | 75° |
| 2026-04-26 19:38 | 48.68613 | 9.20225 | 1280 ft | 0 kts | 74° |
| 2026-04-26 19:38 | 48.68701 | 9.20685 | 1270 ft | 87 kts | 73° |
| 2026-04-26 19:39 | 48.68934 | 9.21895 | 1252 ft | 150 kts | 73° |
| 2026-04-26 19:39 | 48.69235 | 9.23592 | 1515 ft | 180 kts | 75° |
| 2026-04-26 19:39 | 48.69570 | 9.25564 | 2031 ft | 206 kts | 73° |
| 2026-04-26 19:39 | 48.69988 | 9.27783 | 2623 ft | 231 kts | 73° |
| 2026-04-26 19:40 | 48.70466 | 9.30217 | 3283 ft | 249 kts | 73° |
| 2026-04-26 19:40 | 48.70970 | 9.32776 | 4195 ft | 257 kts | 75° |
| 2026-04-26 19:40 | 48.71102 | 9.35504 | 5119 ft | 266 kts | 95° |
| 2026-04-26 19:40 | 48.70897 | 9.38322 | 6063 ft | 273 kts | 96° |
| 2026-04-26 19:41 | 48.70672 | 9.41209 | 6991 ft | 279 kts | 96° |
| 2026-04-26 19:41 | 48.70437 | 9.44157 | 7886 ft | 285 kts | 96° |
| 2026-04-26 19:41 | 48.70195 | 9.47160 | 8809 ft | 290 kts | 96° |
| 2026-04-26 19:41 | 48.70115 | 9.48146 | 9105 ft | 292 kts | 96° |
| 2026-04-26 19:42 | 48.69691 | 9.53349 | 10531 ft | 306 kts | 96° |
| 2026-04-26 19:42 | 48.69428 | 9.56631 | 10879 ft | 330 kts | 96° |
| 2026-04-26 19:42 | 48.69146 | 9.60182 | 11335 ft | 347 kts | 96° |
| 2026-04-26 19:42 | 48.68854 | 9.63848 | 12090 ft | 354 kts | 96° |
| 2026-04-26 19:43 | 48.68554 | 9.67572 | 12916 ft | 358 kts | 96° |
| 2026-04-26 19:43 | 48.68248 | 9.71336 | 13733 ft | 363 kts | 96° |
| 2026-04-26 19:43 | 48.67936 | 9.75148 | 14105 ft | 366 kts | 96° |
| 2026-04-26 19:43 | 48.67623 | 9.78967 | 14205 ft | 366 kts | 96° |
| 2026-04-26 19:44 | 48.67309 | 9.82787 | 14229 ft | 366 kts | 96° |
| 2026-04-26 19:44 | 48.66992 | 9.86636 | 14426 ft | 371 kts | 96° |
| 2026-04-26 19:44 | 48.66780 | 9.89203 | 14964 ft | 371 kts | 96° |
| 2026-04-26 19:44 | 48.66456 | 9.93089 | 15746 ft | 373 kts | 96° |
| 2026-04-26 19:45 | 48.66127 | 9.97004 | 16499 ft | 376 kts | 96° |
| 2026-04-26 19:45 | 48.65685 | 10.02231 | 17448 ft | 381 kts | 96° |
| 2026-04-26 19:45 | 48.65458 | 10.04928 | 17935 ft | 384 kts | 96° |
| 2026-04-26 19:45 | 48.65008 | 10.10273 | 18786 ft | 389 kts | 96° |
| 2026-04-26 19:46 | 48.64776 | 10.13028 | 19194 ft | 392 kts | 96° |
| 2026-04-26 19:46 | 48.64425 | 10.17136 | 19775 ft | 396 kts | 97° |
| 2026-04-26 19:46 | 48.64072 | 10.21231 | 20340 ft | 400 kts | 97° |
| 2026-04-26 19:46 | 48.63711 | 10.25424 | 20905 ft | 403 kts | 96° |
| 2026-04-26 19:47 | 48.63348 | 10.29653 | 21468 ft | 407 kts | 96° |
| 2026-04-26 19:47 | 48.63105 | 10.32480 | 21831 ft | 410 kts | 96° |
| 2026-04-26 19:47 | 48.62608 | 10.38233 | 22563 ft | 415 kts | 96° |
| 2026-04-26 19:47 | 48.62227 | 10.42590 | 23094 ft | 419 kts | 96° |
| 2026-04-26 19:48 | 48.61839 | 10.46975 | 23618 ft | 423 kts | 97° |
| 2026-04-26 19:48 | 48.61443 | 10.51418 | 24050 ft | 427 kts | 97° |
| 2026-04-26 19:48 | 48.61050 | 10.55831 | 24473 ft | 431 kts | 97° |
| 2026-04-26 19:48 | 48.60648 | 10.60334 | 24916 ft | 433 kts | 97° |
| 2026-04-26 19:49 | 48.60241 | 10.64869 | 25363 ft | 436 kts | 97° |
| 2026-04-26 19:49 | 48.59830 | 10.69419 | 25796 ft | 439 kts | 97° |
| 2026-04-26 19:49 | 48.59413 | 10.73997 | 26219 ft | 441 kts | 97° |
| 2026-04-26 19:49 | 48.58991 | 10.78600 | 26642 ft | 444 kts | 97° |
| 2026-04-26 19:50 | 48.58752 | 10.83256 | 27043 ft | 446 kts | 91° |
| 2026-04-26 19:50 | 48.58632 | 10.87956 | 27459 ft | 448 kts | 91° |
| 2026-04-26 19:50 | 48.58514 | 10.92673 | 27855 ft | 451 kts | 91° |
| 2026-04-26 19:50 | 48.58392 | 10.97430 | 28235 ft | 455 kts | 91° |
| 2026-04-26 19:51 | 48.58261 | 11.02217 | 28630 ft | 457 kts | 92° |
| 2026-04-26 19:51 | 48.58122 | 11.07035 | 29025 ft | 460 kts | 92° |
| 2026-04-26 19:51 | 48.57980 | 11.11883 | 29405 ft | 463 kts | 92° |
| 2026-04-26 19:51 | 48.57847 | 11.16678 | 29770 ft | 465 kts | 91° |
| 2026-04-26 19:52 | 48.57743 | 11.21583 | 30128 ft | 467 kts | 91° |
| 2026-04-26 19:52 | 48.57659 | 11.26500 | 30447 ft | 470 kts | 90° |
| 2026-04-26 19:52 | 48.57584 | 11.31450 | 30742 ft | 472 kts | 90° |
| 2026-04-26 19:52 | 48.57507 | 11.36420 | 31009 ft | 475 kts | 91° |
| 2026-04-26 19:53 | 48.57421 | 11.41422 | 31192 ft | 478 kts | 91° |
| 2026-04-26 19:53 | 48.57322 | 11.46397 | 31241 ft | 467 kts | 91° |
| 2026-04-26 19:53 | 48.57107 | 11.56039 | 31245 ft | 458 kts | 92° |
| 2026-04-26 19:54 | 48.56178 | 11.65578 | 31243 ft | 457 kts | 103° |
| 2026-04-26 19:54 | 48.54820 | 11.74882 | 31241 ft | 456 kts | 103° |
| 2026-04-26 19:55 | 48.53450 | 11.84259 | 31240 ft | 459 kts | 103° |
| 2026-04-26 19:55 | 48.52060 | 11.93669 | 31234 ft | 459 kts | 104° |
| 2026-04-26 19:56 | 48.50660 | 12.03080 | 31231 ft | 459 kts | 104° |
| 2026-04-26 19:56 | 48.49260 | 12.12468 | 31227 ft | 459 kts | 104° |
| 2026-04-26 19:57 | 48.47860 | 12.21800 | 31213 ft | 459 kts | 104° |
| 2026-04-26 19:57 | 48.46440 | 12.31193 | 31213 ft | 460 kts | 104° |
| 2026-04-26 19:58 | 48.45010 | 12.40580 | 31217 ft | 460 kts | 104° |
| 2026-04-26 19:58 | 48.43570 | 12.49976 | 31219 ft | 460 kts | 104° |
| 2026-04-26 19:59 | 48.42123 | 12.59373 | 31217 ft | 460 kts | 104° |
| 2026-04-26 19:59 | 48.40669 | 12.68756 | 31217 ft | 460 kts | 104° |
| 2026-04-26 20:00 | 48.39813 | 12.78289 | 31218 ft | 462 kts | 90° |
| 2026-04-26 20:00 | 48.40108 | 12.87955 | 31218 ft | 462 kts | 88° |
| 2026-04-26 20:01 | 48.40401 | 12.97627 | 31218 ft | 462 kts | 88° |
| 2026-04-26 20:01 | 48.40674 | 13.07239 | 31214 ft | 463 kts | 88° |
| 2026-04-26 20:02 | 48.40942 | 13.16933 | 31217 ft | 463 kts | 88° |
| 2026-04-26 20:02 | 48.41161 | 13.24997 | 31217 ft | 463 kts | 88° |
| 2026-04-26 20:03 | 48.41519 | 13.36317 | 31220 ft | 463 kts | 86° |
| 2026-04-26 20:03 | 48.42100 | 13.45984 | 31224 ft | 463 kts | 84° |
| 2026-04-26 20:04 | 48.42749 | 13.55636 | 31225 ft | 463 kts | 84° |
| 2026-04-26 20:04 | 48.43337 | 13.65309 | 31222 ft | 463 kts | 85° |
| 2026-04-26 20:05 | 48.43865 | 13.74935 | 31222 ft | 463 kts | 85° |
| 2026-04-26 20:05 | 48.44386 | 13.84604 | 31222 ft | 463 kts | 85° |
| 2026-04-26 20:06 | 48.44910 | 13.94289 | 31228 ft | 463 kts | 85° |
| 2026-04-26 20:06 | 48.45430 | 14.03971 | 31232 ft | 463 kts | 85° |
| 2026-04-26 20:07 | 48.45940 | 14.13649 | 31230 ft | 464 kts | 85° |
| 2026-04-26 20:07 | 48.46441 | 14.23290 | 31105 ft | 465 kts | 85° |
| 2026-04-26 20:08 | 48.46691 | 14.28159 | 30855 ft | 466 kts | 85° |
| 2026-04-26 20:08 | 48.46938 | 14.33020 | 30610 ft | 467 kts | 86° |
| 2026-04-26 20:08 | 48.47185 | 14.37907 | 30366 ft | 467 kts | 86° |
| 2026-04-26 20:08 | 48.47432 | 14.42798 | 30088 ft | 467 kts | 85° |
| 2026-04-26 20:09 | 48.47676 | 14.47690 | 29766 ft | 466 kts | 85° |
| 2026-04-26 20:09 | 48.47913 | 14.52540 | 29079 ft | 463 kts | 85° |
| 2026-04-26 20:09 | 48.48146 | 14.57353 | 28423 ft | 459 kts | 85° |
| 2026-04-26 20:09 | 48.48375 | 14.62130 | 27771 ft | 455 kts | 85° |
| 2026-04-26 20:10 | 48.48598 | 14.66823 | 27131 ft | 452 kts | 85° |
| 2026-04-26 20:10 | 48.48821 | 14.71537 | 26492 ft | 449 kts | 85° |
| 2026-04-26 20:10 | 48.49041 | 14.76209 | 25866 ft | 445 kts | 85° |
| 2026-04-26 20:10 | 48.49259 | 14.80844 | 25256 ft | 442 kts | 85° |
| 2026-04-26 20:11 | 48.49474 | 14.85449 | 24670 ft | 438 kts | 86° |
| 2026-04-26 20:11 | 48.49684 | 14.90009 | 24087 ft | 434 kts | 86° |
| 2026-04-26 20:11 | 48.49887 | 14.94530 | 23494 ft | 430 kts | 86° |
| 2026-04-26 20:12 | 48.50282 | 15.03419 | 22434 ft | 418 kts | 86° |
| 2026-04-26 20:12 | 48.50474 | 15.07776 | 21915 ft | 413 kts | 85° |
| 2026-04-26 20:12 | 48.50662 | 15.12078 | 21398 ft | 409 kts | 85° |
| 2026-04-26 20:12 | 48.50849 | 15.16335 | 20872 ft | 405 kts | 85° |
| 2026-04-26 20:13 | 48.51034 | 15.20554 | 20348 ft | 402 kts | 85° |
| 2026-04-26 20:13 | 48.51213 | 15.24738 | 19827 ft | 399 kts | 85° |
| 2026-04-26 20:13 | 48.51388 | 15.28879 | 19277 ft | 398 kts | 85° |
| 2026-04-26 20:13 | 48.51561 | 15.33058 | 18731 ft | 397 kts | 84° |
| 2026-04-26 20:14 | 48.51733 | 15.37216 | 18137 ft | 396 kts | 84° |
| 2026-04-26 20:14 | 48.51904 | 15.41351 | 17584 ft | 393 kts | 84° |
| 2026-04-26 20:14 | 48.51926 | 15.45438 | 17282 ft | 387 kts | 93° |
| 2026-04-26 20:14 | 48.51693 | 15.49453 | 17262 ft | 383 kts | 93° |
| 2026-04-26 20:15 | 48.51469 | 15.53419 | 17272 ft | 383 kts | 93° |
| 2026-04-26 20:15 | 48.51246 | 15.57426 | 17268 ft | 383 kts | 93° |
| 2026-04-26 20:15 | 48.51020 | 15.61432 | 17269 ft | 383 kts | 93° |
| 2026-04-26 20:15 | 48.50791 | 15.65441 | 17273 ft | 383 kts | 93° |
| 2026-04-26 20:16 | 48.50561 | 15.69439 | 17265 ft | 383 kts | 93° |
| 2026-04-26 20:16 | 48.50332 | 15.73448 | 17265 ft | 383 kts | 93° |
| 2026-04-26 20:16 | 48.50105 | 15.77397 | 17267 ft | 383 kts | 93° |
| 2026-04-26 20:16 | 48.49874 | 15.81393 | 17266 ft | 383 kts | 93° |
| 2026-04-26 20:17 | 48.49641 | 15.85396 | 17267 ft | 383 kts | 93° |
| 2026-04-26 20:17 | 48.49404 | 15.89399 | 17266 ft | 383 kts | 93° |
| 2026-04-26 20:17 | 48.49163 | 15.93401 | 17266 ft | 383 kts | 93° |
| 2026-04-26 20:17 | 48.49000 | 15.96050 | 17266 ft | 383 kts | 93° |
| 2026-04-26 20:18 | 48.48669 | 16.01395 | 17266 ft | 383 kts | 93° |
| 2026-04-26 20:18 | 48.48417 | 16.05392 | 17266 ft | 383 kts | 95° |
| 2026-04-26 20:18 | 48.47840 | 16.09323 | 17229 ft | 385 kts | 107° |
| 2026-04-26 20:18 | 48.46775 | 16.12993 | 16379 ft | 392 kts | 120° |
| 2026-04-26 20:19 | 48.45259 | 16.16407 | 15218 ft | 392 kts | 124° |
| 2026-04-26 20:19 | 48.43694 | 16.19782 | 14208 ft | 389 kts | 124° |
| 2026-04-26 20:19 | 48.42151 | 16.23109 | 13166 ft | 384 kts | 124° |
| 2026-04-26 20:19 | 48.40644 | 16.26368 | 12457 ft | 371 kts | 124° |
| 2026-04-26 20:20 | 48.39195 | 16.29516 | 12208 ft | 364 kts | 124° |
| 2026-04-26 20:20 | 48.37767 | 16.32628 | 11960 ft | 359 kts | 124° |
| 2026-04-26 20:20 | 48.36354 | 16.35712 | 11711 ft | 357 kts | 124° |
| 2026-04-26 20:20 | 48.34965 | 16.38746 | 11467 ft | 356 kts | 124° |
| 2026-04-26 20:21 | 48.33559 | 16.41813 | 11212 ft | 355 kts | 124° |
| 2026-04-26 20:21 | 48.32157 | 16.44859 | 10967 ft | 354 kts | 125° |
| 2026-04-26 20:21 | 48.30756 | 16.47897 | 10725 ft | 353 kts | 125° |
| 2026-04-26 20:21 | 48.29177 | 16.50701 | 10484 ft | 351 kts | 137° |
| 2026-04-26 20:22 | 48.27299 | 16.53006 | 10252 ft | 349 kts | 144° |
| 2026-04-26 20:22 | 48.25355 | 16.55189 | 9993 ft | 345 kts | 144° |
| 2026-04-26 20:22 | 48.23467 | 16.57314 | 9817 ft | 332 kts | 144° |
| 2026-04-26 20:22 | 48.21653 | 16.59364 | 9690 ft | 320 kts | 144° |
| 2026-04-26 20:23 | 48.19903 | 16.61355 | 9567 ft | 312 kts | 142° |
| 2026-04-26 20:23 | 48.18384 | 16.63662 | 9430 ft | 311 kts | 128° |
| 2026-04-26 20:23 | 48.17257 | 16.66418 | 9302 ft | 310 kts | 115° |
| 2026-04-26 20:23 | 48.16319 | 16.69288 | 9178 ft | 310 kts | 115° |
| 2026-04-26 20:24 | 48.15367 | 16.72182 | 9037 ft | 309 kts | 115° |
| 2026-04-26 20:24 | 48.14416 | 16.75063 | 8910 ft | 308 kts | 115° |
| 2026-04-26 20:24 | 48.13461 | 16.77945 | 8775 ft | 308 kts | 116° |
| 2026-04-26 20:24 | 48.12512 | 16.80809 | 8646 ft | 307 kts | 116° |
| 2026-04-26 20:25 | 48.11564 | 16.83668 | 8536 ft | 306 kts | 116° |
| 2026-04-26 20:25 | 48.11258 | 16.84589 | 8514 ft | 306 kts | 116° |
| 2026-04-26 20:25 | 48.09661 | 16.89378 | 8290 ft | 306 kts | 116° |
| 2026-04-26 20:25 | 48.08726 | 16.92180 | 8146 ft | 295 kts | 116° |
| 2026-04-26 20:26 | 48.07824 | 16.94879 | 7945 ft | 286 kts | 116° |
| 2026-04-26 20:26 | 48.06959 | 16.97469 | 7777 ft | 279 kts | 116° |
| 2026-04-26 20:26 | 48.06089 | 17.00077 | 7707 ft | 280 kts | 116° |
| 2026-04-26 20:26 | 48.05220 | 17.02684 | 7577 ft | 280 kts | 116° |
| 2026-04-26 20:27 | 48.04350 | 17.05283 | 7423 ft | 279 kts | 116° |
| 2026-04-26 20:27 | 48.03477 | 17.07883 | 7257 ft | 278 kts | 116° |
| 2026-04-26 20:27 | 48.02612 | 17.10471 | 7106 ft | 277 kts | 116° |
| 2026-04-26 20:27 | 48.01747 | 17.13052 | 6936 ft | 277 kts | 116° |
| 2026-04-26 20:28 | 48.00652 | 17.15343 | 6784 ft | 274 kts | 141° |
| 2026-04-26 20:28 | 47.98998 | 17.16617 | 6617 ft | 267 kts | 171° |
| 2026-04-26 20:28 | 47.97189 | 17.16597 | 6443 ft | 257 kts | 199° |
| 2026-04-26 20:28 | 47.95569 | 17.15554 | 6272 ft | 254 kts | 212° |
| 2026-04-26 20:29 | 47.94605 | 17.14595 | 6156 ft | 248 kts | 228° |
| 2026-04-26 20:29 | 47.93708 | 17.12484 | 5995 ft | 240 kts | 257° |
| 2026-04-26 20:29 | 47.93597 | 17.10050 | 5779 ft | 235 kts | 283° |
| 2026-04-26 20:29 | 47.94194 | 17.07801 | 5564 ft | 235 kts | 298° |
| 2026-04-26 20:30 | 47.94932 | 17.05625 | 5348 ft | 236 kts | 298° |
| 2026-04-26 20:30 | 47.95666 | 17.03451 | 5153 ft | 228 kts | 298° |
| 2026-04-26 20:30 | 47.96327 | 17.01474 | 5024 ft | 199 kts | 298° |
| 2026-04-26 20:30 | 47.96916 | 16.99701 | 4683 ft | 186 kts | 299° |
| 2026-04-26 20:31 | 47.97482 | 16.98007 | 4295 ft | 183 kts | 299° |
| 2026-04-26 20:31 | 47.98058 | 16.96288 | 4169 ft | 186 kts | 299° |
| 2026-04-26 20:31 | 47.98639 | 16.94553 | 4037 ft | 186 kts | 299° |
| 2026-04-26 20:31 | 47.99222 | 16.92810 | 3903 ft | 187 kts | 299° |
| 2026-04-26 20:32 | 47.99796 | 16.91092 | 3787 ft | 187 kts | 299° |
| 2026-04-26 20:32 | 48.00378 | 16.89349 | 3648 ft | 187 kts | 299° |
| 2026-04-26 20:32 | 48.00957 | 16.87608 | 3529 ft | 187 kts | 299° |
| 2026-04-26 20:32 | 48.01524 | 16.85902 | 3421 ft | 181 kts | 299° |
| 2026-04-26 20:33 | 48.02079 | 16.84232 | 3275 ft | 178 kts | 299° |
| 2026-04-26 20:33 | 48.02626 | 16.82586 | 3165 ft | 171 kts | 299° |
| 2026-04-26 20:33 | 48.03122 | 16.81087 | 3086 ft | 153 kts | 300° |
| 2026-04-26 20:33 | 48.03573 | 16.79722 | 3026 ft | 142 kts | 300° |
| 2026-04-26 20:34 | 48.04014 | 16.78420 | 3031 ft | 139 kts | 301° |
| 2026-04-26 20:34 | 48.04452 | 16.77140 | 3027 ft | 138 kts | 301° |
| 2026-04-26 20:34 | 48.04884 | 16.75879 | 3039 ft | 138 kts | 301° |
| 2026-04-26 20:34 | 48.05317 | 16.74594 | 3021 ft | 139 kts | 300° |
| 2026-04-26 20:35 | 48.05747 | 16.73303 | 2913 ft | 139 kts | 300° |
| 2026-04-26 20:35 | 48.06173 | 16.72012 | 2762 ft | 138 kts | 300° |
| 2026-04-26 20:35 | 48.06597 | 16.70723 | 2583 ft | 138 kts | 300° |
| 2026-04-26 20:35 | 48.07021 | 16.69433 | 2406 ft | 138 kts | 300° |
| 2026-04-26 20:36 | 48.07445 | 16.68140 | 2213 ft | 138 kts | 300° |
| 2026-04-26 20:36 | 48.07867 | 16.66851 | 2035 ft | 138 kts | 300° |
| 2026-04-26 20:36 | 48.08289 | 16.65561 | 1842 ft | 137 kts | 300° |
| 2026-04-26 20:36 | 48.08705 | 16.64283 | 1653 ft | 136 kts | 299° |
| 2026-04-26 20:37 | 48.09116 | 16.63009 | 1476 ft | 135 kts | 298° |
| 2026-04-26 20:37 | 48.09513 | 16.61766 | 1315 ft | 133 kts | 298° |
| 2026-04-26 20:37 | 48.09918 | 16.60530 | 1112 ft | 131 kts | 297° |
| 2026-04-26 20:37 | 48.10321 | 16.59312 | 957 ft | 131 kts | 297° |
| 2026-04-26 20:38 | 48.10723 | 16.58106 | 737 ft | 128 kts | 297° |
| 2026-04-26 20:38 | 48.11117 | 16.56914 | 619 ft | 126 kts | 297° |
| 2026-04-26 20:38 | 48.11415 | 16.55992 | 618 ft | 58 kts | 296° |
| 2026-04-26 20:38 | 48.11557 | 16.55553 | 613 ft | 36 kts | 294° |
| 2026-04-26 20:39 | 48.11710 | 16.55272 | 611 ft | 34 kts | 317° |
| 2026-04-26 20:39 | 48.11840 | 16.55136 | 619 ft | 19 kts | 355° |
| 2026-04-26 20:39 | 48.11883 | 16.55154 | 611 ft | 0 kts | 26° |
| 2026-04-26 20:40 | 48.11920 | 16.55181 | 622 ft | 9 kts | 28° |
| 2026-04-26 20:40 | 48.11946 | 16.55251 | 618 ft | 8 kts | 97° |
| 2026-04-26 20:41 | 48.11921 | 16.55335 | 613 ft | 11 kts | 116° |
| 2026-04-26 20:41 | 48.11910 | 16.55456 | 620 ft | 12 kts | 65° |
| 2026-04-26 20:41 | 48.11921 | 16.55489 | 618 ft | 0 kts | 64° |
| 2026-04-26 20:41 | 48.11922 | 16.55493 | 618 ft | 2 kts | 64° |
| 2026-04-26 20:42 | 48.11928 | 16.55510 | 622 ft | 2 kts | 64° |
| 2026-04-26 20:42 | 48.11932 | 16.55524 | 614 ft | 1 kts | 64° |
| 2026-04-26 20:42 | 48.11936 | 16.55536 | 623 ft | 1 kts | 64° |
| 2026-04-26 20:42 | 48.11940 | 16.55546 | 622 ft | 1 kts | 64° |
| 2026-04-26 20:43 | 48.11942 | 16.55554 | 619 ft | 1 kts | 64° |
| 2026-04-26 20:43 | 48.11945 | 16.55561 | 617 ft | 1 kts | 64° |
| 2026-04-26 20:43 | 48.11950 | 16.55578 | 619 ft | 3 kts | 64° |
| 2026-04-26 20:43 | 48.11955 | 16.55592 | 623 ft | 0 kts | 64° |